createdAt,value
2023-03-07T00:01:30.184Z,3.38
2023-03-07T00:03:59.309Z,3.43
2023-03-07T00:06:27.361Z,3.32
2023-03-07T00:08:59.924Z,3.44
2023-03-07T00:11:28.914Z,3.35
2023-03-07T00:13:57.318Z,3.42
2023-03-07T00:16:25.977Z,3.39
2023-03-07T00:18:54.793Z,3.26
2023-03-07T00:21:22.992Z,3.25
2023-03-07T00:23:54.238Z,3.29
2023-03-07T00:26:24.444Z,3.26
2023-03-07T00:28:55.046Z,3.17
2023-03-07T00:31:24.378Z,3.29
2023-03-07T00:33:52.071Z,3.21
2023-03-07T00:36:23.144Z,3.21
2023-03-07T00:38:52.025Z,3.19
2023-03-07T00:41:25.411Z,3.27
2023-03-07T00:43:55.127Z,3.21
2023-03-07T00:46:25.236Z,3.24
2023-03-07T00:48:53.353Z,3.19
2023-03-07T00:51:22.368Z,3.22
2023-03-07T00:53:51.092Z,3.11
2023-03-07T00:56:25.254Z,3.12
2023-03-07T00:58:53.250Z,3.18
2023-03-07T01:01:25.696Z,3.01
2023-03-07T01:03:54.236Z,3.07
2023-03-07T01:06:27.131Z,3.10
2023-03-07T01:08:58.063Z,3.07
2023-03-07T01:11:26.571Z,3.15
2023-03-07T01:13:59.433Z,3.20
2023-03-07T01:16:34.121Z,3.25
2023-03-07T01:19:06.724Z,3.26
2023-03-07T01:21:40.491Z,3.23
2023-03-07T01:24:13.762Z,3.30
2023-03-07T01:26:41.183Z,3.34
2023-03-07T01:29:11.861Z,3.44
2023-03-07T01:31:39.586Z,3.39
2023-03-07T01:34:07.952Z,3.32
2023-03-07T01:36:37.055Z,3.49
2023-03-07T01:39:15.917Z,3.45
2023-03-07T01:41:45.229Z,3.44
2023-03-07T01:44:26.013Z,3.44
2023-03-07T01:47:00.801Z,3.32
2023-03-07T01:49:41.040Z,3.36
2023-03-07T01:52:43.116Z,3.42
2023-03-07T01:55:22.680Z,3.34
2023-03-07T01:57:52.489Z,3.34
2023-03-07T02:00:29.871Z,3.30
2023-03-07T02:03:17.536Z,3.38
2023-03-07T02:06:10.672Z,3.37
2023-03-07T02:08:40.299Z,3.37
2023-03-07T02:11:08.553Z,3.31
2023-03-07T02:13:35.969Z,3.37
2023-03-07T02:16:05.908Z,3.47
2023-03-07T02:18:42.043Z,3.41
2023-03-07T02:21:32.922Z,3.29
2023-03-07T02:24:32.458Z,3.41
2023-03-07T02:26:59.982Z,3.35
2023-03-07T02:29:27.250Z,3.39
2023-03-07T02:31:54.752Z,3.42
2023-03-07T02:34:27.276Z,3.45
2023-03-07T02:37:05.014Z,3.38
2023-03-07T02:39:33.260Z,3.45
2023-03-07T02:42:08.272Z,3.40
2023-03-07T02:44:35.554Z,3.34
2023-03-07T02:47:03.285Z,3.37
2023-03-07T02:49:30.563Z,3.48
2023-03-07T02:52:00.745Z,3.56
2023-03-07T02:54:28.090Z,3.36
2023-03-07T02:56:55.648Z,3.28
2023-03-07T02:59:22.957Z,3.39
2023-03-07T03:01:50.658Z,3.46
2023-03-07T03:04:18.125Z,3.40
2023-03-07T03:06:45.691Z,3.34
2023-03-07T03:09:13.020Z,3.37
2023-03-07T03:11:40.550Z,3.41
2023-03-07T03:14:07.999Z,3.44
2023-03-07T03:16:35.542Z,3.46
2023-03-07T03:19:03.520Z,3.45
2023-03-07T03:21:31.635Z,3.42
2023-03-07T03:23:58.925Z,3.39
2023-03-07T03:26:26.499Z,3.48
2023-03-07T03:28:55.078Z,3.54
2023-03-07T03:31:22.685Z,3.50
2023-03-07T03:33:52.328Z,3.35
2023-03-07T03:36:20.433Z,3.45
2023-03-07T03:38:47.668Z,3.42
2023-03-07T03:41:16.155Z,3.47
2023-03-07T03:43:43.613Z,3.53
2023-03-07T03:46:11.444Z,3.40
2023-03-07T03:48:38.859Z,3.44
2023-03-07T03:51:12.370Z,3.37
2023-03-07T03:53:40.243Z,3.45
2023-03-07T03:56:15.939Z,3.38
2023-03-07T03:58:44.305Z,3.34
2023-03-07T04:01:13.018Z,3.28
2023-03-07T04:03:44.280Z,3.26
2023-03-07T04:06:15.592Z,3.41
2023-03-07T04:08:42.981Z,3.36
2023-03-07T04:11:10.753Z,3.31
2023-03-07T04:13:38.059Z,3.37
2023-03-07T04:16:06.404Z,3.42
2023-03-07T04:18:35.545Z,3.45
2023-03-07T04:21:06.102Z,3.63
2023-03-07T04:23:34.134Z,3.47
2023-03-07T04:26:05.215Z,3.44
2023-03-07T04:28:45.402Z,3.39
2023-03-07T04:31:22.710Z,3.39
2023-03-07T04:33:51.229Z,3.49
2023-03-07T04:36:19.057Z,3.36
2023-03-07T04:38:48.668Z,3.23
2023-03-07T04:41:23.144Z,3.19
2023-03-07T04:43:50.510Z,3.21
2023-03-07T04:46:19.637Z,3.17
2023-03-07T04:48:47.841Z,3.24
2023-03-07T04:51:15.927Z,3.31
2023-03-07T04:53:44.334Z,3.29
2023-03-07T04:56:15.313Z,3.03
2023-03-07T04:58:44.155Z,3.11
2023-03-07T05:01:11.814Z,3.01
2023-03-07T05:03:39.139Z,3.10
2023-03-07T05:06:11.174Z,3.07
2023-03-07T05:08:38.425Z,3.06
2023-03-07T05:11:06.329Z,2.95
2023-03-07T05:13:33.833Z,2.89
2023-03-07T05:16:01.728Z,2.87
2023-03-07T05:18:29.656Z,2.83
2023-03-07T05:20:57.321Z,2.80
2023-03-07T05:23:24.855Z,2.90
2023-03-07T05:25:52.382Z,2.84
2023-03-07T05:28:19.740Z,2.62
2023-03-07T05:30:48.139Z,2.65
2023-03-07T05:33:15.806Z,2.66
2023-03-07T05:35:43.509Z,2.77
2023-03-07T05:38:11.489Z,2.65
2023-03-07T05:40:39.426Z,2.71
2023-03-07T05:43:06.776Z,2.78
2023-03-07T05:45:34.339Z,2.81
2023-03-07T05:48:02.091Z,2.85
2023-03-07T05:50:30.719Z,2.82
2023-03-07T05:52:57.999Z,2.99
2023-03-07T05:55:25.802Z,2.99
2023-03-07T05:57:53.163Z,2.83
2023-03-07T06:00:21.658Z,2.97
2023-03-07T06:02:48.928Z,2.98
2023-03-07T06:05:17.078Z,3.08
2023-03-07T06:07:44.690Z,3.27
2023-03-07T06:10:13.371Z,3.25
2023-03-07T06:12:40.707Z,3.23
2023-03-07T06:15:09.066Z,3.40
2023-03-07T06:17:37.177Z,3.35
2023-03-07T06:20:06.168Z,3.47
2023-03-07T06:22:34.731Z,3.47
2023-03-07T06:25:02.335Z,3.58
2023-03-07T06:27:37.128Z,3.68
2023-03-07T06:30:07.640Z,3.58
2023-03-07T06:32:35.014Z,3.55
2023-03-07T06:35:02.614Z,3.76
2023-03-07T06:37:29.844Z,3.94
2023-03-07T06:39:57.604Z,4.21
2023-03-07T06:42:24.913Z,4.10
2023-03-07T06:44:52.642Z,4.17
2023-03-07T06:47:19.969Z,4.21
2023-03-07T06:49:47.457Z,4.07
2023-03-07T06:52:14.713Z,4.32
2023-03-07T06:54:42.226Z,4.51
2023-03-07T06:57:09.527Z,4.62
2023-03-07T06:59:37.032Z,4.77
2023-03-07T07:02:05.590Z,4.78
2023-03-07T07:04:33.835Z,4.68
2023-03-07T07:07:01.125Z,4.72
2023-03-07T07:09:29.220Z,4.90
2023-03-07T07:11:56.461Z,5.10
2023-03-07T07:14:24.227Z,5.36
2023-03-07T07:16:51.564Z,5.69
2023-03-07T07:19:19.144Z,5.72
2023-03-07T07:21:46.453Z,6.10
2023-03-07T07:24:14.106Z,6.42
2023-03-07T07:26:41.383Z,6.72
2023-03-07T07:29:09.006Z,6.76
2023-03-07T07:31:36.402Z,6.31
2023-03-07T07:34:04.527Z,6.25
2023-03-07T07:36:32.710Z,5.98
2023-03-07T07:39:05.460Z,5.97
2023-03-07T07:41:34.643Z,5.95
2023-03-07T07:44:02.420Z,6.01
2023-03-07T07:46:29.953Z,5.77
2023-03-07T07:48:57.542Z,6.02
2023-03-07T07:51:24.849Z,6.10
2023-03-07T07:53:52.560Z,6.14
2023-03-07T07:56:19.843Z,6.40
2023-03-07T07:58:48.116Z,6.67
2023-03-07T08:01:22.023Z,6.66
2023-03-07T08:03:49.852Z,7.13
2023-03-07T08:06:27.380Z,7.80
2023-03-07T08:08:56.017Z,7.92
2023-03-07T08:11:24.266Z,8.39
2023-03-07T08:13:52.041Z,9.19
2023-03-07T08:16:22.763Z,9.81
2023-03-07T08:18:54.419Z,9.15
2023-03-07T08:21:22.567Z,9.22
2023-03-07T08:23:50.383Z,9.60
2023-03-07T08:26:18.053Z,11.37
2023-03-07T08:28:46.206Z,13.45
2023-03-07T08:31:21.120Z,14.31
2023-03-07T08:33:49.754Z,14.61
2023-03-07T08:36:17.108Z,13.64
2023-03-07T08:38:50.917Z,14.04
2023-03-07T08:41:20.735Z,13.24
2023-03-07T08:43:48.575Z,13.48
2023-03-07T08:46:16.594Z,13.04
2023-03-07T08:48:44.277Z,13.85
2023-03-07T08:51:16.581Z,14.58
2023-03-07T08:53:46.307Z,15.81
2023-03-07T08:56:18.026Z,14.44
2023-03-07T08:58:46.602Z,13.71
2023-03-07T09:01:14.243Z,14.39
2023-03-07T09:03:43.636Z,13.60
2023-03-07T09:06:20.639Z,13.45
2023-03-07T09:08:49.620Z,12.66
2023-03-07T09:11:19.318Z,12.33
2023-03-07T09:13:52.358Z,12.00
2023-03-07T09:16:21.950Z,11.92
2023-03-07T09:18:50.594Z,11.28
2023-03-07T09:21:18.157Z,11.28
2023-03-07T09:23:45.789Z,10.65
2023-03-07T09:26:13.316Z,10.38
2023-03-07T09:28:41.480Z,10.09
2023-03-07T09:31:11.915Z,10.67
2023-03-07T09:33:40.142Z,10.44
2023-03-07T09:36:11.404Z,9.86
2023-03-07T09:38:39.896Z,10.08
2023-03-07T09:41:41.076Z,9.68
2023-03-07T09:44:44.883Z,9.38
2023-03-07T09:47:39.226Z,12.35
2023-03-07T09:50:29.596Z,14.65
2023-03-07T09:53:04.019Z,14.31
2023-03-07T09:55:32.667Z,14.74
2023-03-07T09:58:16.122Z,13.98
2023-03-07T10:00:45.791Z,13.59
2023-03-07T10:03:46.250Z,18.01
2023-03-07T10:06:30.676Z,23.76
2023-03-07T10:09:01.395Z,20.97
2023-03-07T10:12:40.023Z,21.58
2023-03-07T10:15:45.830Z,19.23
2023-03-07T10:18:46.578Z,21.92
2023-03-07T10:21:38.332Z,18.15
2023-03-07T10:24:38.842Z,21.00
2023-03-07T10:27:10.780Z,20.37
2023-03-07T10:29:52.016Z,23.35
2023-03-07T10:32:35.037Z,27.90
2023-03-07T10:35:21.592Z,29.90
2023-03-07T10:37:57.151Z,32.45
2023-03-07T10:40:48.925Z,31.80
2023-03-07T10:43:36.794Z,28.24
2023-03-07T10:46:25.098Z,30.05
2023-03-07T10:49:16.952Z,24.62
2023-03-07T10:51:57.599Z,21.89
2023-03-07T10:54:32.351Z,22.51
2023-03-07T10:57:10.284Z,21.89
2023-03-07T10:59:43.696Z,21.73
2023-03-07T11:02:44.858Z,22.23
2023-03-07T11:05:36.678Z,19.43
2023-03-07T11:08:34.103Z,16.53
2023-03-07T11:11:04.843Z,14.55
2023-03-07T11:13:32.626Z,14.03
2023-03-07T11:16:20.328Z,14.04
2023-03-07T11:18:48.146Z,14.12
2023-03-07T11:21:36.165Z,13.25
2023-03-07T11:24:20.377Z,12.63
2023-03-07T11:26:54.329Z,12.62
2023-03-07T11:29:22.255Z,11.96
2023-03-07T11:32:12.332Z,11.83
2023-03-07T11:35:08.150Z,11.47
2023-03-07T11:37:49.275Z,11.51
2023-03-07T11:40:26.796Z,11.97
2023-03-07T11:43:13.479Z,11.94
2023-03-07T11:46:17.814Z,12.08
2023-03-07T11:49:27.208Z,12.16
2023-03-07T11:52:17.731Z,11.82
2023-03-07T11:54:57.300Z,13.16
2023-03-07T11:57:36.912Z,15.19
2023-03-07T12:00:47.770Z,16.15
2023-03-07T12:03:20.906Z,17.39
2023-03-07T12:06:29.332Z,17.89
2023-03-07T12:09:22.158Z,16.23
2023-03-07T12:11:55.229Z,15.95
2023-03-07T12:14:56.221Z,15.66
2023-03-07T12:17:48.601Z,15.80
2023-03-07T12:20:31.071Z,16.04
2023-03-07T12:23:16.516Z,14.99
2023-03-07T12:25:58.514Z,14.49
2023-03-07T12:28:44.397Z,13.72
2023-03-07T12:31:32.438Z,13.32
2023-03-07T12:34:33.910Z,13.29
2023-03-07T12:37:16.651Z,13.10
2023-03-07T12:40:02.277Z,14.36
2023-03-07T12:42:56.090Z,14.14
2023-03-07T12:45:50.619Z,12.95
2023-03-07T12:48:52.099Z,12.45
2023-03-07T12:51:43.158Z,14.00
2023-03-07T12:54:34.147Z,13.96
2023-03-07T12:57:19.968Z,13.91
2023-03-07T12:59:50.847Z,14.09
2023-03-07T13:02:29.284Z,15.42
2023-03-07T13:04:59.016Z,15.34
2023-03-07T13:07:33.567Z,15.19
2023-03-07T13:10:07.160Z,15.10
2023-03-07T13:12:38.850Z,15.24
2023-03-07T13:15:38.621Z,14.89
2023-03-07T13:18:30.327Z,15.64
2023-03-07T13:21:14.183Z,15.84
2023-03-07T13:23:41.746Z,14.92
2023-03-07T13:26:22.531Z,14.15
2023-03-07T13:28:51.501Z,13.32
2023-03-07T13:31:18.981Z,13.37
2023-03-07T13:33:48.029Z,12.91
2023-03-07T13:36:38.768Z,12.85
2023-03-07T13:39:38.419Z,13.23
2023-03-07T13:42:46.439Z,13.17
2023-03-07T13:45:42.973Z,12.18
2023-03-07T13:48:30.866Z,11.89
2023-03-07T13:51:01.248Z,11.94
2023-03-07T13:53:31.392Z,12.17
2023-03-07T13:56:17.282Z,11.82
2023-03-07T13:59:18.360Z,11.43
2023-03-07T14:02:12.714Z,11.37
2023-03-07T14:04:56.000Z,11.19
2023-03-07T14:07:28.362Z,11.38
2023-03-07T14:10:23.782Z,11.44
2023-03-07T14:13:13.116Z,11.32
2023-03-07T14:16:09.970Z,10.95
2023-03-07T14:19:07.493Z,11.28
2023-03-07T14:21:57.126Z,11.54
2023-03-07T14:24:41.477Z,12.26
2023-03-07T14:27:16.500Z,12.74
2023-03-07T14:29:57.221Z,13.37
2023-03-07T14:32:30.914Z,13.27
2023-03-07T14:34:59.349Z,13.78
2023-03-07T14:37:32.787Z,13.94
2023-03-07T14:40:00.146Z,13.32
2023-03-07T14:43:22.829Z,12.90
2023-03-07T14:46:14.532Z,13.07
2023-03-07T14:49:23.998Z,13.32
2023-03-07T14:51:51.496Z,13.33
2023-03-07T14:54:29.778Z,12.53
2023-03-07T14:57:00.020Z,12.20
2023-03-07T14:59:29.379Z,12.13
2023-03-07T15:01:57.983Z,11.76
2023-03-07T15:04:28.820Z,12.02
2023-03-07T15:07:01.350Z,11.59
2023-03-07T15:09:30.654Z,11.06
2023-03-07T15:12:20.209Z,10.75
2023-03-07T15:15:03.291Z,10.63
2023-03-07T15:17:43.880Z,10.19
2023-03-07T15:20:19.366Z,9.79
2023-03-07T15:22:47.433Z,9.35
2023-03-07T15:25:25.244Z,9.13
2023-03-07T15:28:02.241Z,8.94
2023-03-07T15:30:36.937Z,8.68
2023-03-07T15:33:35.538Z,8.52
2023-03-07T15:36:12.369Z,8.42
2023-03-07T15:38:45.260Z,8.28
2023-03-07T15:41:33.896Z,8.22
2023-03-07T15:44:21.394Z,8.20
2023-03-07T15:46:56.442Z,8.04
2023-03-07T15:49:47.581Z,8.20
2023-03-07T15:52:31.802Z,8.01
2023-03-07T15:55:02.410Z,7.90
2023-03-07T15:57:47.980Z,8.00
2023-03-07T16:00:30.258Z,7.68
2023-03-07T16:03:25.798Z,7.56
2023-03-07T16:05:55.241Z,7.52
2023-03-07T16:08:23.878Z,7.35
2023-03-07T16:11:05.508Z,7.40
2023-03-07T16:13:40.988Z,7.30
2023-03-07T16:16:23.299Z,7.28
2023-03-07T16:18:52.083Z,7.23
2023-03-07T16:21:20.574Z,7.18
2023-03-07T16:23:48.545Z,7.10
2023-03-07T16:26:23.961Z,7.13
2023-03-07T16:28:53.806Z,7.18
2023-03-07T16:31:22.069Z,7.18
2023-03-07T16:33:49.850Z,7.04
2023-03-07T16:36:18.197Z,7.10
2023-03-07T16:38:47.295Z,6.85
2023-03-07T16:41:21.120Z,6.89
2023-03-07T16:43:57.953Z,7.04
2023-03-07T16:46:26.273Z,6.93
2023-03-07T16:48:53.982Z,6.92
2023-03-07T16:51:25.796Z,7.02
2023-03-07T16:53:53.696Z,6.76
2023-03-07T16:56:30.432Z,6.75
2023-03-07T16:59:00.510Z,6.81
2023-03-07T17:01:28.409Z,6.78
2023-03-07T17:03:56.714Z,6.69
2023-03-07T17:06:37.253Z,6.59
2023-03-07T17:09:09.487Z,6.85
2023-03-07T17:11:40.487Z,6.87
2023-03-07T17:14:09.699Z,6.82
2023-03-07T17:16:45.095Z,6.81
2023-03-07T17:19:31.103Z,6.82
2023-03-07T17:22:01.144Z,6.80
2023-03-07T17:24:29.690Z,6.66
2023-03-07T17:27:07.563Z,6.85
2023-03-07T17:29:45.462Z,6.66
2023-03-07T17:32:13.397Z,6.71
2023-03-07T17:34:41.152Z,6.71
2023-03-07T17:37:10.607Z,6.69
2023-03-07T17:39:39.008Z,6.67
2023-03-07T17:42:06.715Z,6.62
2023-03-07T17:44:34.552Z,6.52
2023-03-07T17:47:01.948Z,6.55
2023-03-07T17:49:38.663Z,6.41
2023-03-07T17:52:08.113Z,6.59
2023-03-07T17:54:36.222Z,6.53
2023-03-07T17:57:03.885Z,6.50
2023-03-07T17:59:34.305Z,6.43
2023-03-07T18:02:02.961Z,6.45
2023-03-07T18:04:31.933Z,6.43
2023-03-07T18:07:02.295Z,6.38
2023-03-07T18:09:31.207Z,6.34
2023-03-07T18:11:58.581Z,6.29
2023-03-07T18:14:27.968Z,6.24
2023-03-07T18:16:56.787Z,6.26
2023-03-07T18:19:27.224Z,6.41
2023-03-07T18:21:56.308Z,6.37
2023-03-07T18:24:31.661Z,6.12
2023-03-07T18:27:00.589Z,6.13
2023-03-07T18:29:29.712Z,6.09
2023-03-07T18:31:57.508Z,5.92
2023-03-07T18:34:25.669Z,6.05
2023-03-07T18:36:54.434Z,6.10
2023-03-07T18:39:24.128Z,6.04
2023-03-07T18:41:53.342Z,6.03
2023-03-07T18:44:21.541Z,5.90
2023-03-07T18:46:49.917Z,5.89
2023-03-07T18:49:17.958Z,5.98
2023-03-07T18:51:46.175Z,5.88
2023-03-07T18:54:14.267Z,5.85
2023-03-07T18:56:44.996Z,5.83
2023-03-07T18:59:13.767Z,5.86
2023-03-07T19:01:42.759Z,5.87
2023-03-07T19:04:11.765Z,5.85
2023-03-07T19:06:42.753Z,5.86
2023-03-07T19:09:19.777Z,5.93
2023-03-07T19:11:48.492Z,6.02
2023-03-07T19:14:16.429Z,5.91
2023-03-07T19:16:44.282Z,5.97
2023-03-07T19:19:12.073Z,5.96
2023-03-07T19:21:39.566Z,5.94
2023-03-07T19:24:11.555Z,5.92
2023-03-07T19:26:40.201Z,6.01
2023-03-07T19:29:09.849Z,6.10
2023-03-07T19:31:37.195Z,6.04
2023-03-07T19:34:06.453Z,6.27
2023-03-07T19:36:37.545Z,6.13
2023-03-07T19:39:06.284Z,6.11
2023-03-07T19:41:33.679Z,6.16
2023-03-07T19:44:01.821Z,6.09
2023-03-07T19:46:29.173Z,6.10
2023-03-07T19:48:56.938Z,6.11
2023-03-07T19:51:27.054Z,6.20
2023-03-07T19:53:57.504Z,6.21
2023-03-07T19:56:31.873Z,6.28
2023-03-07T19:59:02.167Z,6.25
2023-03-07T20:01:30.417Z,6.26
2023-03-07T20:03:58.788Z,6.24
2023-03-07T20:06:32.747Z,6.36
2023-03-07T20:09:01.514Z,6.35
2023-03-07T20:11:34.663Z,6.36
2023-03-07T20:14:05.786Z,6.27
2023-03-07T20:16:34.804Z,6.27
2023-03-07T20:19:09.213Z,6.21
2023-03-07T20:21:38.216Z,6.30
2023-03-07T20:24:08.223Z,6.32
2023-03-07T20:26:38.745Z,6.32
2023-03-07T20:29:08.636Z,6.32
2023-03-07T20:31:39.285Z,6.31
2023-03-07T20:34:08.157Z,6.27
2023-03-07T20:36:38.363Z,6.33
2023-03-07T20:39:14.652Z,6.30
2023-03-07T20:41:44.130Z,6.46
2023-03-07T20:44:14.884Z,6.45
2023-03-07T20:46:42.541Z,6.46
2023-03-07T20:49:14.151Z,6.41
2023-03-07T20:51:43.506Z,6.47
2023-03-07T20:54:14.773Z,6.33
2023-03-07T20:56:43.897Z,6.52
2023-03-07T20:59:16.048Z,6.34
2023-03-07T21:01:50.498Z,6.45
2023-03-07T21:04:20.602Z,6.44
2023-03-07T21:06:49.245Z,6.34
2023-03-07T21:09:18.478Z,6.36
2023-03-07T21:11:49.212Z,6.50
2023-03-07T21:14:19.560Z,6.39
2023-03-07T21:16:46.982Z,6.36
2023-03-07T21:19:14.880Z,6.51
2023-03-07T21:21:42.650Z,6.46
2023-03-07T21:24:15.911Z,6.28
2023-03-07T21:26:43.453Z,6.34
2023-03-07T21:29:11.183Z,6.31
2023-03-07T21:31:38.948Z,6.44
2023-03-07T21:34:11.302Z,6.44
2023-03-07T21:36:38.679Z,6.33
2023-03-07T21:39:09.951Z,6.25
2023-03-07T21:41:38.184Z,6.26
2023-03-07T21:44:06.251Z,6.41
2023-03-07T21:46:33.730Z,6.32
2023-03-07T21:49:01.692Z,6.21
2023-03-07T21:51:29.285Z,6.26
2023-03-07T21:53:56.896Z,6.29
2023-03-07T21:56:24.357Z,6.25
2023-03-07T21:59:01.183Z,6.24
2023-03-07T22:01:29.764Z,6.31
2023-03-07T22:03:59.693Z,6.28
2023-03-07T22:06:28.445Z,6.25
2023-03-07T22:08:56.396Z,6.32
2023-03-07T22:11:23.696Z,6.24
2023-03-07T22:13:51.414Z,6.13
2023-03-07T22:16:21.060Z,6.17
2023-03-07T22:18:53.730Z,6.14
2023-03-07T22:21:21.640Z,6.13
2023-03-07T22:23:49.288Z,6.21
2023-03-07T22:26:16.684Z,6.18
2023-03-07T22:28:44.198Z,6.18
2023-03-07T22:31:13.273Z,6.15
2023-03-07T22:33:41.834Z,6.07
2023-03-07T22:36:13.203Z,6.11
2023-03-07T22:38:42.865Z,6.13
2023-03-07T22:41:17.098Z,6.19
2023-03-07T22:43:45.268Z,6.23
2023-03-07T22:46:13.147Z,6.22
2023-03-07T22:48:41.097Z,6.13
2023-03-07T22:51:20.279Z,6.16
2023-03-07T22:53:48.404Z,6.11
2023-03-07T22:56:27.506Z,6.15
2023-03-07T22:58:55.388Z,6.13
2023-03-07T23:01:27.173Z,6.12
2023-03-07T23:03:57.370Z,6.10
2023-03-07T23:06:30.303Z,6.13
2023-03-07T23:08:59.868Z,6.18
2023-03-07T23:11:31.329Z,6.12
2023-03-07T23:14:00.079Z,6.04
2023-03-07T23:16:30.779Z,6.09
2023-03-07T23:18:59.936Z,6.11
2023-03-07T23:21:30.782Z,6.02
2023-03-07T23:23:59.975Z,6.07
2023-03-07T23:26:36.993Z,6.08
2023-03-07T23:29:09.873Z,6.01
2023-03-07T23:31:40.515Z,6.03
2023-03-07T23:34:19.091Z,6.02
2023-03-07T23:36:46.845Z,6.14
2023-03-07T23:39:16.677Z,6.06
2023-03-07T23:41:44.021Z,5.96
2023-03-07T23:44:12.232Z,6.06
2023-03-07T23:46:39.847Z,5.97
2023-03-07T23:49:07.424Z,5.97
2023-03-07T23:51:34.754Z,5.96
2023-03-07T23:54:02.341Z,5.95
2023-03-07T23:56:29.725Z,5.86
2023-03-07T23:58:57.233Z,5.83
